Time;durP1;ratioP1;P1;durP2;ratioP2;P2;SDS_P1;SDS_P2;PMS_P1;PMS_P2;Temp;Humidity;BMP_temperature;BMP_pressure;BME280_temperature;BME280_humidity;BME280_pressure;Samples;Min_cycle;Max_cycle;Signal;HPM_P1;HPM_P2
2021/12/31 00:00:50;;;;;;;5.47;1.75;;;;;;;13.01;100.00;101737.69;5092051;28;20056;-76
2021/12/31 00:03:20;;;;;;;5.78;2.30;;;;;;;13.00;100.00;101751.75;5089726;28;20024;-75
2021/12/31 00:05:49;;;;;;;6.13;2.03;;;;;;;13.03;100.00;101746.50;5108163;28;20054;-76
2021/12/31 00:08:15;;;;;;;10.43;2.83;;;;;;;13.02;100.00;101752.66;5117141;28;20020;-75
2021/12/31 00:10:40;;;;;;;7.47;1.85;;;;;;;13.07;100.00;101745.72;5096701;28;20027;-75
2021/12/31 00:13:06;;;;;;;11.50;2.03;;;;;;;13.08;100.00;101755.44;5098746;28;20474;-75
2021/12/31 00:15:32;;;;;;;8.30;2.25;;;;;;;13.08;100.00;101751.91;5108163;28;20055;-75
2021/12/31 00:17:57;;;;;;;10.00;2.15;;;;;;;13.08;100.00;101744.88;5089954;28;20444;-75
2021/12/31 00:20:25;;;;;;;8.98;2.50;;;;;;;13.06;100.00;101741.31;5110660;28;20023;-76
2021/12/31 00:23:06;;;;;;;6.60;1.98;;;;;;;13.03;100.00;101741.22;5112846;28;20035;-75
2021/12/31 00:25:34;;;;;;;8.05;2.88;;;;;;;13.08;100.00;101744.88;5115610;28;20069;-75
2021/12/31 00:27:59;;;;;;;9.82;2.97;;;;;;;13.10;100.00;101735.25;5098713;28;20032;-75
2021/12/31 00:30:26;;;;;;;11.50;2.72;;;;;;;13.10;100.00;101737.88;5091025;28;20100;-75
2021/12/31 00:32:51;;;;;;;8.18;3.03;;;;;;;13.10;100.00;101737.88;5095332;28;20035;-75
2021/12/31 00:35:18;;;;;;;6.43;2.80;;;;;;;13.11;100.00;101728.19;5116141;28;20485;-75
2021/12/31 00:37:44;;;;;;;5.65;2.50;;;;;;;13.12;100.00;101736.16;5101732;28;20102;-75
2021/12/31 00:40:13;;;;;;;11.32;2.75;;;;;;;13.07;100.00;101743.06;5093197;28;20114;-75
2021/12/31 00:42:39;;;;;;;9.43;2.95;;;;;;;13.12;100.00;101735.25;5106056;28;20440;-76
2021/12/31 00:45:08;;;;;;;7.07;2.75;;;;;;;13.10;100.00;101737.88;5081588;28;20110;-75
2021/12/31 00:47:34;;;;;;;14.15;3.63;;;;;;;13.10;100.00;101745.81;5091313;28;20032;-75
2021/12/31 00:50:00;;;;;;;6.72;2.90;;;;;;;13.11;100.00;101751.97;5086515;28;20023;-76
2021/12/31 00:52:25;;;;;;;9.07;3.10;;;;;;;13.05;100.00;101744.81;5081322;28;20031;-75
2021/12/31 00:54:51;;;;;;;6.95;3.17;;;;;;;12.97;100.00;101751.69;5085930;28;20028;-75
2021/12/31 00:57:16;;;;;;;8.05;2.97;;;;;;;12.91;100.00;101754.19;5092821;28;20154;-79
2021/12/31 00:59:42;;;;;;;8.43;3.45;;;;;;;12.90;100.00;101757.69;5097959;28;20040;-75
2021/12/31 01:02:10;;;;;;;7.05;3.17;;;;;;;12.88;100.00;101759.41;5101495;28;20107;-75
2021/12/31 01:04:36;;;;;;;7.65;3.00;;;;;;;12.76;100.00;101754.75;5104106;28;20038;-75
2021/12/31 01:07:01;;;;;;;9.52;3.17;;;;;;;12.78;100.00;101761.84;5093043;28;20027;-76
2021/12/31 01:09:29;;;;;;;9.63;3.38;;;;;;;12.76;100.00;101755.63;5101086;28;20412;-75
2021/12/31 01:11:56;;;;;;;7.30;4.15;;;;;;;12.71;100.00;101754.66;5077946;28;20044;-75
2021/12/31 01:14:36;;;;;;;9.32;3.40;;;;;;;12.71;100.00;101753.75;5101004;28;20032;-76
2021/12/31 01:17:08;;;;;;;8.60;3.40;;;;;;;12.75;100.00;101761.78;5091816;28;20095;-76
2021/12/31 01:19:46;;;;;;;12.57;3.63;;;;;;;12.81;100.00;101751.34;5092683;28;20024;-76
2021/12/31 01:22:27;;;;;;;8.50;3.47;;;;;;;12.82;100.00;101753.13;5096058;28;20450;-76
2021/12/31 01:24:52;;;;;;;7.03;2.83;;;;;;;12.85;100.00;101751.44;5083643;28;20153;-76
2021/12/31 01:27:20;;;;;;;7.10;3.45;;;;;;;12.93;100.00;101749.84;5100430;28;20077;-76
2021/12/31 01:29:45;;;;;;;8.85;3.35;;;;;;;12.95;100.00;101753.38;5106120;28;20137;-76
2021/12/31 01:32:13;;;;;;;7.55;3.10;;;;;;;12.94;100.00;101756.88;5110470;28;20080;-76
2021/12/31 01:34:39;;;;;;;6.55;2.95;;;;;;;12.93;100.00;101763.94;5086341;28;20028;-76
2021/12/31 01:37:06;;;;;;;10.25;3.33;;;;;;;12.97;100.00;101759.63;5088778;28;20019;-75
2021/12/31 01:39:32;;;;;;;10.55;3.10;;;;;;;12.95;100.00;101769.25;5066002;28;20434;-76
2021/12/31 01:42:01;;;;;;;8.70;3.53;;;;;;;12.93;100.00;101765.69;5086435;28;20044;-76
2021/12/31 01:44:35;;;;;;;5.88;2.85;;;;;;;12.95;100.00;101759.59;5069326;28;20112;-76
2021/12/31 01:47:05;;;;;;;9.32;3.00;;;;;;;12.95;100.00;101758.69;5056969;28;20029;-76
2021/12/31 01:49:37;;;;;;;9.77;2.70;;;;;;;12.97;100.00;101756.97;5063380;28;20029;-76
2021/12/31 01:52:04;;;;;;;4.85;3.08;;;;;;;12.99;100.00;101755.25;5066796;28;20044;-75
2021/12/31 01:54:31;;;;;;;9.07;2.80;;;;;;;12.99;100.00;101760.53;5058121;28;20068;-76
2021/12/31 01:57:00;;;;;;;11.52;3.03;;;;;;;13.01;100.00;101756.19;5059216;28;20069;-76
2021/12/31 01:59:27;;;;;;;8.88;2.88;;;;;;;13.09;100.00;101753.66;5057870;28;20040;-76
2021/12/31 02:01:59;;;;;;;6.72;2.30;;;;;;;13.07;100.00;101750.13;5055932;28;20075;-76
2021/12/31 02:04:29;;;;;;;6.72;2.47;;;;;;;13.08;100.00;101750.16;5063731;28;20324;-76
2021/12/31 02:06:55;;;;;;;6.20;2.75;;;;;;;13.11;100.00;101749.31;5054574;28;20107;-76
2021/12/31 02:09:21;;;;;;;7.10;2.20;;;;;;;13.06;100.00;101750.97;5064102;28;20511;-76
2021/12/31 02:11:46;;;;;;;12.68;2.55;;;;;;;13.08;100.00;101750.16;5069241;28;20028;-77
2021/12/31 02:14:12;;;;;;;4.15;2.42;;;;;;;13.14;100.00;101745.00;5060782;28;20036;-76
2021/12/31 02:16:39;;;;;;;6.80;3.13;;;;;;;13.09;100.00;101753.66;5055011;28;20025;-75
2021/12/31 02:19:16;;;;;;;7.45;3.00;;;;;;;13.12;100.00;101740.56;5054315;28;20040;-76
2021/12/31 02:21:44;;;;;;;8.43;2.63;;;;;;;13.14;100.00;101744.09;5062056;28;20036;-77
2021/12/31 02:24:10;;;;;;;7.75;2.75;;;;;;;13.10;100.00;101748.44;5056316;28;20035;-76
2021/12/31 02:26:40;;;;;;;5.07;2.25;;;;;;;13.10;100.00;101748.44;5059701;28;20167;-76
2021/12/31 02:29:06;;;;;;;9.15;2.75;;;;;;;13.13;100.00;101747.59;5057288;28;20034;-76
2021/12/31 02:31:31;;;;;;;7.47;2.40;;;;;;;13.11;100.00;101752.84;5063502;28;20523;-76
2021/12/31 02:33:58;;;;;;;4.50;2.30;;;;;;;13.14;100.00;101755.56;5063756;28;20063;-76
2021/12/31 02:36:24;;;;;;;6.00;2.72;;;;;;;13.18;100.00;101755.63;5064293;28;21560;-76
2021/12/31 02:38:51;;;;;;;8.70;2.63;;;;;;;13.21;100.00;101755.69;5066441;28;20025;-76
2021/12/31 02:41:16;;;;;;;7.18;2.88;;;;;;;13.19;100.00;101753.00;5059658;28;20016;-76
2021/12/31 02:43:42;;;;;;;5.95;2.88;;;;;;;13.15;100.00;101752.06;5102561;28;20028;-76
2021/12/31 02:46:15;;;;;;;6.13;2.40;;;;;;;13.19;100.00;101746.84;5101521;28;20021;-76
2021/12/31 02:48:40;;;;;;;6.17;2.10;;;;;;;13.12;100.00;101757.28;5102766;28;20024;-76
2021/12/31 02:51:06;;;;;;;5.88;2.42;;;;;;;13.15;100.00;101748.53;5088634;28;20027;-75
2021/12/31 02:53:37;;;;;;;5.47;2.72;;;;;;;13.11;100.00;101760.78;5095822;28;20491;-77
2021/12/31 02:56:07;;;;;;;6.18;2.72;;;;;;;13.14;100.00;101750.28;5086330;28;20036;-77
2021/12/31 02:58:35;;;;;;;6.97;2.35;;;;;;;13.14;100.00;101754.66;5077022;28;20031;-76
2021/12/31 03:01:02;;;;;;;7.20;2.47;;;;;;;13.16;100.00;101743.28;5082864;28;20031;-76
2021/12/31 03:03:28;;;;;;;8.40;2.28;;;;;;;13.19;100.00;101738.94;5111745;28;20038;-76
2021/12/31 03:05:55;;;;;;;7.75;2.50;;;;;;;13.14;100.00;101765.25;5102026;28;20209;-76
2021/12/31 03:08:28;;;;;;;5.43;2.30;;;;;;;13.15;100.00;101741.47;5087666;28;20040;-76
2021/12/31 03:10:55;;;;;;;2.90;2.05;;;;;;;13.17;100.00;101733.56;5103357;28;20032;-76
2021/12/31 03:13:22;;;;;;;5.90;2.17;;;;;;;13.16;100.00;101734.47;5079609;28;20149;-76
2021/12/31 03:15:48;;;;;;;4.93;2.10;;;;;;;13.12;100.00;101729.97;5082556;28;20468;-76
2021/12/31 03:18:16;;;;;;;8.75;2.53;;;;;;;13.13;100.00;101718.53;5101304;28;20024;-76
2021/12/31 03:20:57;;;;;;;4.88;2.22;;;;;;;13.14;100.00;101718.59;5099177;28;20028;-76
2021/12/31 03:23:29;;;;;;;6.55;2.58;;;;;;;13.13;100.00;101722.06;5101083;28;20482;-75
2021/12/31 03:25:55;;;;;;;11.95;2.35;;;;;;;13.16;100.00;101711.56;5103981;28;20070;-76
2021/12/31 03:28:20;;;;;;;5.50;2.17;;;;;;;13.18;100.00;101726.56;5093737;28;20028;-76
2021/12/31 03:30:47;;;;;;;7.43;2.17;;;;;;;13.18;100.00;101714.22;5093831;28;20032;-76
2021/12/31 03:33:16;;;;;;;5.60;2.33;;;;;;;13.15;100.00;101720.34;5080733;28;20032;-76
2021/12/31 03:35:42;;;;;;;8.65;2.20;;;;;;;13.23;100.00;101724.91;5106766;28;20024;-76
2021/12/31 03:38:08;;;;;;;9.20;2.20;;;;;;;13.16;100.00;101724.78;5079355;28;20387;-76
2021/12/31 03:40:33;;;;;;;12.70;3.08;;;;;;;13.16;100.00;101727.41;5095617;28;20031;-76
2021/12/31 03:43:00;;;;;;;10.73;2.78;;;;;;;13.18;100.00;101723.91;5116502;28;20510;-76
2021/12/31 03:45:26;;;;;;;7.47;1.80;;;;;;;13.21;100.00;101718.69;5079931;28;20036;-76
2021/12/31 03:47:53;;;;;;;7.70;2.25;;;;;;;13.18;100.00;101729.22;5095141;28;20031;-76
2021/12/31 03:50:18;;;;;;;4.90;2.05;;;;;;;13.19;100.00;101725.72;5113793;28;20433;-76
2021/12/31 03:52:44;;;;;;;7.63;2.25;;;;;;;13.18;100.00;101723.91;5105320;28;20028;-76
2021/12/31 03:55:10;;;;;;;8.75;2.35;;;;;;;13.21;100.00;101721.31;5109215;28;20032;-76
2021/12/31 03:57:37;;;;;;;8.95;2.15;;;;;;;13.24;100.00;101729.31;5105397;28;20426;-76
2021/12/31 04:00:06;;;;;;;4.93;2.05;;;;;;;13.25;100.00;101729.38;5096788;28;20417;-76
2021/12/31 04:02:35;;;;;;;9.30;1.85;;;;;;;13.24;100.00;101726.66;5099765;28;20035;-75
2021/12/31 04:05:01;;;;;;;6.45;2.03;;;;;;;13.30;100.00;101740.03;5109885;28;20479;-76
2021/12/31 04:07:27;;;;;;;9.48;2.55;;;;;;;13.33;100.00;101717.19;5093245;28;20057;-75
2021/12/31 04:09:53;;;;;;;7.30;1.88;;;;;;;13.32;100.00;101719.78;5115301;28;20048;-76
2021/12/31 04:12:18;;;;;;;4.43;2.20;;;;;;;13.30;100.00;101710.94;5091352;28;20140;-75
2021/12/31 04:14:44;;;;;;;6.68;2.15;;;;;;;13.29;100.00;101717.09;5097720;28;20427;-75
2021/12/31 04:17:09;;;;;;;8.43;2.65;;;;;;;13.29;100.00;101717.09;5089793;28;20081;-75
2021/12/31 04:19:35;;;;;;;6.80;2.33;;;;;;;13.27;100.00;101709.13;5115442;28;20422;-75
2021/12/31 04:22:01;;;;;;;4.93;1.65;;;;;;;13.28;100.00;101715.28;5107165;28;20031;-76
2021/12/31 04:24:30;;;;;;;7.03;1.98;;;;;;;13.26;100.00;101703.81;5107249;28;20031;-75
2021/12/31 04:26:56;;;;;;;6.30;1.75;;;;;;;13.24;100.00;101692.31;5091887;28;20100;-76
2021/12/31 04:29:21;;;;;;;6.13;2.25;;;;;;;13.28;100.00;101694.16;5093177;28;20032;-75
2021/12/31 04:31:47;;;;;;;3.72;1.70;;;;;;;13.31;100.00;101688.94;5083719;28;20038;-75
2021/12/31 04:34:13;;;;;;;6.38;2.13;;;;;;;13.22;100.00;101692.28;5104656;28;20035;-75
2021/12/31 04:36:38;;;;;;;3.80;1.95;;;;;;;13.18;100.00;101686.91;5087433;28;20502;-77
2021/12/31 04:39:04;;;;;;;5.60;1.98;;;;;;;13.16;100.00;101687.78;5114814;28;20031;-76
2021/12/31 04:41:29;;;;;;;4.30;2.10;;;;;;;13.12;100.00;101678.00;5097198;28;20114;-75
2021/12/31 04:43:54;;;;;;;5.63;1.75;;;;;;;13.11;100.00;101677.97;5083191;28;20042;-75
2021/12/31 04:46:20;;;;;;;7.70;2.17;;;;;;;13.13;100.00;101673.59;5084387;28;20020;-76
2021/12/31 04:48:45;;;;;;;5.32;1.80;;;;;;;13.08;100.00;101665.59;5107468;28;20032;-76
2021/12/31 04:51:11;;;;;;;8.45;2.05;;;;;;;13.07;100.00;101649.72;5113880;28;20035;-76
2021/12/31 04:53:36;;;;;;;8.27;1.75;;;;;;;13.07;100.00;101641.78;5096409;28;20433;-76
2021/12/31 04:56:02;;;;;;;6.78;2.20;;;;;;;13.06;100.00;101630.34;5105127;28;20131;-76
2021/12/31 04:58:28;;;;;;;7.88;1.70;;;;;;;13.07;100.00;101636.50;5105803;28;20062;-76
2021/12/31 05:00:53;;;;;;;5.70;1.73;;;;;;;13.08;100.00;101641.81;5104296;28;20102;-75
2021/12/31 05:03:20;;;;;;;4.32;1.98;;;;;;;13.09;100.00;101645.34;5101474;28;20023;-75
2021/12/31 05:05:46;;;;;;;2.83;1.45;;;;;;;12.99;100.00;101646.91;5088708;28;20028;-76
2021/12/31 05:08:12;;;;;;;6.68;1.90;;;;;;;13.01;100.00;101647.84;5095986;28;20032;-76
2021/12/31 05:10:38;;;;;;;3.72;1.30;;;;;;;12.96;100.00;101653.03;5078191;28;20032;-75
2021/12/31 05:13:05;;;;;;;2.60;1.52;;;;;;;12.97;100.00;101657.47;5096356;28;20047;-75
2021/12/31 05:15:38;;;;;;;5.20;1.92;;;;;;;12.95;100.00;101664.47;5099075;28;20023;-75
2021/12/31 05:18:04;;;;;;;5.80;1.97;;;;;;;12.98;100.00;101675.09;5084803;28;20391;-76
2021/12/31 05:20:29;;;;;;;4.50;1.70;;;;;;;12.95;100.00;101674.13;5093658;28;20040;-75
2021/12/31 05:23:00;;;;;;;3.25;1.40;;;;;;;12.85;100.00;101672.19;5077744;28;20032;-76
2021/12/31 05:25:26;;;;;;;6.15;1.70;;;;;;;12.88;100.00;101682.81;5106315;28;20039;-76
2021/12/31 05:27:52;;;;;;;5.40;1.80;;;;;;;12.85;100.00;101677.47;5095579;28;20032;-76
2021/12/31 05:30:19;;;;;;;6.97;1.80;;;;;;;12.85;100.00;101677.47;5096493;28;20472;-76
2021/12/31 05:32:45;;;;;;;6.68;1.75;;;;;;;12.77;100.00;101670.25;5094712;28;20150;-75
2021/12/31 05:35:11;;;;;;;6.45;1.77;;;;;;;12.76;100.00;101680.78;5088126;28;20040;-75
2021/12/31 05:37:36;;;;;;;6.28;1.42;;;;;;;12.72;100.00;101671.91;5099985;28;20039;-75
2021/12/31 05:40:03;;;;;;;7.15;1.77;;;;;;;12.72;100.00;101674.53;5095269;28;20042;-75
2021/12/31 05:42:29;;;;;;;5.07;2.03;;;;;;;12.70;100.00;101676.28;5096546;28;20495;-76
2021/12/31 05:44:54;;;;;;;4.93;1.90;;;;;;;12.68;100.00;101679.75;5085364;28;20030;-76
2021/12/31 05:47:21;;;;;;;4.93;2.00;;;;;;;12.68;100.00;101670.06;5096408;28;20092;-75
2021/12/31 05:49:46;;;;;;;5.97;2.00;;;;;;;12.68;100.00;101675.34;5114551;28;20035;-75
2021/12/31 05:52:12;;;;;;;11.18;2.17;;;;;;;12.70;100.00;101684.19;5101919;28;20062;-75
2021/12/31 05:54:37;;;;;;;5.30;2.05;;;;;;;12.66;100.00;101679.72;5096140;28;20475;-75
2021/12/31 05:57:03;;;;;;;7.45;2.38;;;;;;;12.61;100.00;101678.72;5093837;28;20069;-75
2021/12/31 05:59:28;;;;;;;4.55;1.75;;;;;;;12.61;100.00;101676.97;5108938;28;20081;-77
2021/12/31 06:01:54;;;;;;;3.15;1.65;;;;;;;12.61;100.00;101679.59;5089329;28;20063;-75
2021/12/31 06:04:20;;;;;;;2.97;1.80;;;;;;;12.60;100.00;101661.09;5085036;28;20390;-75
2021/12/31 06:06:45;;;;;;;6.50;2.13;;;;;;;12.58;100.00;101673.38;5103280;28;20020;-75
2021/12/31 06:09:13;;;;;;;7.63;2.38;;;;;;;12.58;100.00;101662.81;5100553;28;20398;-75
2021/12/31 06:11:40;;;;;;;5.13;2.20;;;;;;;12.52;100.00;101655.66;5086100;28;20030;-75
2021/12/31 06:14:07;;;;;;;3.88;1.80;;;;;;;12.45;100.00;101654.63;5103534;28;20181;-75
2021/12/31 06:16:41;;;;;;;4.68;2.28;;;;;;;12.39;100.00;101650.97;5097307;28;20023;-75
2021/12/31 06:19:12;;;;;;;6.88;2.42;;;;;;;12.40;100.00;101643.09;5091109;28;20425;-75
2021/12/31 06:21:39;;;;;;;5.15;2.65;;;;;;;12.38;100.00;101643.91;5104785;28;20027;-76
2021/12/31 06:24:08;;;;;;;4.95;2.10;;;;;;;12.35;100.00;101634.16;5078944;28;20036;-74
2021/12/31 06:26:34;;;;;;;5.07;2.08;;;;;;;12.37;100.00;101626.28;5105243;28;20054;-76
2021/12/31 06:28:59;;;;;;;6.47;2.30;;;;;;;12.34;100.00;101627.09;5103131;28;20051;-75
2021/12/31 06:31:25;;;;;;;9.43;2.20;;;;;;;12.32;100.00;101628.81;5082312;28;20024;-76
2021/12/31 06:33:51;;;;;;;4.13;1.77;;;;;;;12.31;100.00;101621.75;5104539;28;20032;-76
2021/12/31 06:36:19;;;;;;;7.43;2.38;;;;;;;12.30;100.00;101622.59;5077588;28;20479;-75
2021/12/31 06:38:45;;;;;;;8.55;2.10;;;;;;;12.32;100.00;101613.00;5105482;28;20392;-76
2021/12/31 06:41:11;;;;;;;4.13;2.05;;;;;;;12.36;100.00;101619.22;5087490;28;20032;-76
2021/12/31 06:43:38;;;;;;;6.07;1.80;;;;;;;12.32;100.00;101618.28;5089632;28;20094;-76
2021/12/31 06:46:04;;;;;;;2.97;1.88;;;;;;;12.36;100.00;101620.13;5098044;28;20034;-75
2021/12/31 06:48:29;;;;;;;5.85;2.40;;;;;;;12.32;100.00;101626.19;5108238;28;20382;-77
2021/12/31 06:50:55;;;;;;;9.77;2.00;;;;;;;12.32;100.00;101636.75;5111440;28;20478;-75
2021/12/31 06:53:20;;;;;;;6.70;2.15;;;;;;;12.32;100.00;101634.09;5093427;28;20514;-76
2021/12/31 06:55:46;;;;;;;7.40;2.38;;;;;;;12.33;100.00;101651.72;5088981;28;20081;-76
2021/12/31 06:58:11;;;;;;;3.80;1.70;;;;;;;12.35;100.00;101636.81;5096925;28;21019;-75
2021/12/31 07:00:37;;;;;;;5.22;2.30;;;;;;;12.34;100.00;101653.50;5110335;28;20028;-75
2021/12/31 07:03:04;;;;;;;6.85;1.95;;;;;;;12.37;100.00;101648.31;5104432;28;20095;-75
2021/12/31 07:05:30;;;;;;;5.18;1.95;;;;;;;12.37;100.00;101663.22;5112759;28;20019;-76
2021/12/31 07:07:56;;;;;;;7.45;2.55;;;;;;;12.34;100.00;101657.88;5098566;28;20043;-76
2021/12/31 07:10:22;;;;;;;7.43;2.72;;;;;;;12.33;100.00;101659.66;5114578;28;20031;-76
2021/12/31 07:12:47;;;;;;;7.80;2.63;;;;;;;12.31;100.00;101664.88;5094859;28;20023;-76
2021/12/31 07:15:13;;;;;;;4.50;2.28;;;;;;;12.32;100.00;101661.38;5110125;28;20039;-76
2021/12/31 07:17:39;;;;;;;4.38;2.05;;;;;;;12.29;100.00;101663.06;5105039;28;20027;-76
2021/12/31 07:20:05;;;;;;;6.72;2.40;;;;;;;12.22;100.00;101658.50;5111134;28;20444;-76
2021/12/31 07:22:33;;;;;;;5.53;2.80;;;;;;;12.26;100.00;101661.25;5097618;28;20479;-76
2021/12/31 07:24:59;;;;;;;4.32;2.60;;;;;;;12.27;100.00;101656.84;5098688;28;20495;-76
2021/12/31 07:27:25;;;;;;;4.35;1.85;;;;;;;12.20;100.00;101653.19;5085121;28;20060;-76
2021/12/31 07:29:51;;;;;;;4.88;2.50;;;;;;;12.22;100.00;101661.13;5102211;28;20047;-76
2021/12/31 07:32:21;;;;;;;4.82;2.05;;;;;;;12.24;100.00;101662.06;5111564;28;20032;-76
2021/12/31 07:34:56;;;;;;;5.95;2.00;;;;;;;12.27;100.00;101657.72;5104880;28;20078;-76
2021/12/31 07:37:33;;;;;;;4.47;2.03;;;;;;;12.30;100.00;101654.28;5103722;28;20094;-76
2021/12/31 07:40:05;;;;;;;5.80;2.58;;;;;;;12.27;100.00;101656.84;5078956;28;20074;-75
2021/12/31 07:42:30;;;;;;;4.18;2.35;;;;;;;12.24;100.00;101648.88;5073409;28;20423;-76
2021/12/31 07:44:56;;;;;;;5.38;2.00;;;;;;;12.22;100.00;101632.09;5067200;28;20090;-76
2021/12/31 07:47:23;;;;;;;6.20;2.55;;;;;;;12.18;100.00;101644.34;5065287;28;20063;-76
2021/12/31 07:49:48;;;;;;;5.75;2.22;;;;;;;12.26;100.00;101644.50;5058979;28;20554;-76
2021/12/31 07:52:14;;;;;;;7.53;2.45;;;;;;;12.24;100.00;101657.69;5056837;28;20045;-75
2021/12/31 07:54:39;;;;;;;3.90;2.42;;;;;;;12.28;100.00;101661.28;5061530;28;20021;-75
2021/12/31 07:57:09;;;;;;;5.00;2.15;;;;;;;12.25;100.00;101661.19;5062627;28;20079;-76
2021/12/31 07:59:34;;;;;;;6.15;2.10;;;;;;;12.29;100.00;101663.06;5062455;28;20040;-77
2021/12/31 08:02:00;;;;;;;5.00;2.50;;;;;;;12.24;100.00;101652.41;5059094;28;20025;-76
2021/12/31 08:04:25;;;;;;;4.93;2.22;;;;;;;12.18;100.00;101654.00;5070062;28;20037;-75
2021/12/31 08:06:51;;;;;;;6.10;2.22;;;;;;;12.24;100.00;101668.22;5067797;28;20040;-76
2021/12/31 08:09:16;;;;;;;5.95;2.15;;;;;;;12.22;100.00;101669.03;5056412;28;20021;-76
2021/12/31 08:11:42;;;;;;;5.75;2.28;;;;;;;12.20;100.00;101676.94;5057494;28;20051;-76
2021/12/31 08:14:08;;;;;;;5.35;2.25;;;;;;;12.24;100.00;101665.59;5061981;28;20025;-76
2021/12/31 08:16:33;;;;;;;7.82;2.60;;;;;;;12.22;100.00;101684.88;5057723;28;20441;-76
2021/12/31 08:18:59;;;;;;;5.30;2.30;;;;;;;12.14;100.00;101695.28;5069525;28;20040;-76
2021/12/31 08:21:25;;;;;;;4.22;2.13;;;;;;;12.21;100.00;101684.00;5057121;28;20040;-76
2021/12/31 08:23:50;;;;;;;2.67;1.70;;;;;;;12.25;100.00;101690.22;5070588;28;20492;-77
2021/12/31 08:26:17;;;;;;;3.58;2.10;;;;;;;12.19;100.00;101679.53;5061574;28;20025;-76
2021/12/31 08:28:44;;;;;;;4.95;2.30;;;;;;;12.16;100.00;101669.81;5063566;28;20085;-76
2021/12/31 08:31:09;;;;;;;6.53;2.10;;;;;;;12.18;100.00;101672.47;5066235;28;20044;-75
2021/12/31 08:33:43;;;;;;;4.32;2.15;;;;;;;12.15;100.00;101662.72;5062070;28;20045;-75
2021/12/31 08:36:09;;;;;;;;;;;;;;;12.08;100.00;101661.69;5063563;28;20028;-75
2021/12/31 08:38:34;;;;;;;7.07;2.20;;;;;;;12.12;100.00;101667.94;5075561;28;20318;-75
2021/12/31 08:41:01;;;;;;;6.55;2.65;;;;;;;12.08;100.00;101682.81;5059407;28;20481;-75
2021/12/31 08:43:27;;;;;;;5.75;2.38;;;;;;;12.14;100.00;101682.97;5075350;28;20049;-76
2021/12/31 08:45:53;;;;;;;6.75;2.60;;;;;;;12.14;100.00;101688.25;5088159;28;20031;-76
2021/12/31 08:48:18;;;;;;;5.53;2.30;;;;;;;12.18;100.00;101680.38;5086936;28;20025;-76
2021/12/31 08:50:44;;;;;;;6.72;1.90;;;;;;;12.18;100.00;101678.66;5081202;28;20024;-76
2021/12/31 08:53:20;;;;;;;5.85;2.47;;;;;;;12.14;100.00;101669.78;5083501;28;20542;-76
2021/12/31 08:55:46;;;;;;;10.02;2.42;;;;;;;12.10;100.00;101660.00;5076500;28;20031;-76
2021/12/31 08:58:12;;;;;;;4.72;2.30;;;;;;;12.19;100.00;101669.00;5093053;28;20410;-75
2021/12/31 09:00:38;;;;;;;8.10;2.45;;;;;;;12.24;100.00;101672.63;5080910;28;20539;-76
2021/12/31 09:03:03;;;;;;;5.20;2.40;;;;;;;12.18;100.00;101693.56;5086952;28;20024;-78
2021/12/31 09:05:30;;;;;;;3.83;2.30;;;;;;;12.23;100.00;101679.63;5101389;28;20020;-76
2021/12/31 09:07:56;;;;;;;5.32;2.60;;;;;;;12.28;100.00;101677.13;5083836;28;20050;-75
2021/12/31 09:10:22;;;;;;;6.13;2.42;;;;;;;12.31;100.00;101687.75;5082545;28;20024;-75
2021/12/31 09:12:50;;;;;;;5.03;2.50;;;;;;;12.31;100.00;101669.25;5079426;28;20118;-76
2021/12/31 09:15:15;;;;;;;5.75;2.40;;;;;;;12.30;100.00;101688.59;5086137;28;20048;-73
2021/12/31 09:17:41;;;;;;;6.80;2.25;;;;;;;12.32;100.00;101700.97;5079980;28;20056;-72
2021/12/31 09:20:07;;;;;;;3.22;1.92;;;;;;;12.34;100.00;101727.38;5076133;28;20043;-73
2021/12/31 09:22:33;;;;;;;7.25;2.40;;;;;;;12.37;100.00;101726.56;5101614;28;20024;-75
2021/12/31 09:24:58;;;;;;;7.13;2.38;;;;;;;12.37;100.00;101730.13;5081420;28;20040;-75
2021/12/31 09:27:25;;;;;;;4.70;2.28;;;;;;;12.35;100.00;101715.97;5077486;28;20024;-75
2021/12/31 09:29:51;;;;;;;6.47;2.40;;;;;;;12.33;100.00;101715.06;5076230;28;20134;-74
2021/12/31 09:32:16;;;;;;;4.32;2.20;;;;;;;12.33;100.00;101699.22;5078953;28;20067;-74
2021/12/31 09:34:44;;;;;;;7.60;2.70;;;;;;;12.33;100.00;101701.88;5094358;28;20039;-75
2021/12/31 09:37:11;;;;;;;6.35;2.10;;;;;;;12.37;100.00;101718.66;5076984;28;20032;-75
2021/12/31 09:39:37;;;;;;;6.00;2.60;;;;;;;12.38;100.00;101712.53;5088548;28;20032;-75
2021/12/31 09:42:05;;;;;;;6.28;2.47;;;;;;;12.36;100.00;101715.13;5089564;28;20055;-75
2021/12/31 09:44:32;;;;;;;7.25;3.00;;;;;;;12.32;100.00;101737.03;5076525;28;20032;-75
2021/12/31 09:47:02;;;;;;;7.20;2.67;;;;;;;12.37;100.00;101743.31;5111627;28;20023;-74
2021/12/31 09:49:29;;;;;;;7.90;2.58;;;;;;;12.40;100.00;101726.63;5084946;28;20096;-74
2021/12/31 09:51:56;;;;;;;3.03;2.03;;;;;;;12.48;100.00;101719.81;5081342;28;20437;-74
2021/12/31 09:54:22;;;;;;;4.82;2.47;;;;;;;12.46;100.00;101711.81;5103858;28;20023;-74
2021/12/31 09:56:49;;;;;;;4.95;2.17;;;;;;;12.50;100.00;101702.25;5094140;28;20058;-74
2021/12/31 09:59:16;;;;;;;9.15;2.72;;;;;;;12.50;100.00;101712.81;5096918;28;20402;-76
2021/12/31 10:01:45;;;;;;;3.95;2.17;;;;;;;12.50;100.00;101696.97;5097269;28;20463;-75
2021/12/31 10:04:11;;;;;;;6.82;2.67;;;;;;;12.54;100.00;101719.94;5093296;28;20023;-75
2021/12/31 10:06:37;;;;;;;5.38;2.83;;;;;;;12.49;100.00;101726.84;5093452;28;20030;-75
2021/12/31 10:09:03;;;;;;;4.75;2.35;;;;;;;12.52;100.00;101753.34;5084927;28;20024;-75
2021/12/31 10:11:29;;;;;;;4.18;2.17;;;;;;;12.51;100.00;101756.84;5085966;28;20131;-75
2021/12/31 10:14:03;;;;;;;6.78;2.70;;;;;;;12.50;100.00;101743.59;5087250;28;20430;-75
2021/12/31 10:16:36;;;;;;;6.30;2.47;;;;;;;12.46;100.00;101738.22;5105901;28;20106;-75
2021/12/31 10:19:09;;;;;;;7.07;3.03;;;;;;;12.45;100.00;101731.19;5109325;28;20055;-75
2021/12/31 10:22:16;;;;;;;5.97;3.15;;;;;;;12.44;100.00;101700.34;5094439;28;20046;-75
2021/12/31 10:24:44;;;;;;;3.50;2.42;;;;;;;12.48;100.00;101699.56;5065475;28;20122;-74
2021/12/31 10:27:09;;;;;;;8.05;2.58;;;;;;;12.48;100.00;101689.00;5083046;28;20042;-74
2021/12/31 10:29:52;;;;;;;6.30;2.50;;;;;;;12.44;100.00;101644.94;5083006;28;20028;-73
2021/12/31 10:32:18;;;;;;;7.68;2.60;;;;;;;12.45;100.00;101609.75;5096062;28;20043;-75
2021/12/31 10:34:44;;;;;;;5.05;2.35;;;;;;;12.51;100.00;101618.63;5087765;28;20042;-75
2021/12/31 10:37:18;;;;;;;7.32;2.40;;;;;;;12.55;100.00;101636.34;5101534;28;20024;-75
2021/12/31 10:39:44;;;;;;;8.55;2.95;;;;;;;12.65;100.00;101643.59;5123098;28;20027;-75
2021/12/31 10:42:12;;;;;;;4.85;2.55;;;;;;;12.74;99.81;101661.41;5101958;28;20048;-75
2021/12/31 10:44:51;;;;;;;7.93;2.83;;;;;;;12.86;99.61;101671.31;5098503;28;20028;-72
2021/12/31 10:47:27;;;;;;;7.10;2.80;;;;;;;13.28;97.77;101671.28;5111036;28;20398;-71
2021/12/31 10:49:55;;;;;;;6.22;2.63;;;;;;;13.90;94.35;101659.13;5104761;28;20024;-73
2021/12/31 10:52:58;;;;;;;12.93;3.20;;;;;;;14.07;92.98;101671.75;5097161;28;20032;-76
2021/12/31 10:55:29;;;;;;;7.90;3.90;;;;;;;13.78;93.87;101680.09;5074717;28;20499;-75
2021/12/31 10:57:59;;;;;;;5.80;3.03;;;;;;;13.66;94.59;101675.50;5104967;28;20468;-75
2021/12/31 11:00:27;;;;;;;8.27;3.50;;;;;;;13.60;94.94;101685.97;5080427;28;20433;-72
2021/12/31 11:02:53;;;;;;;7.38;2.65;;;;;;;13.48;94.35;101692.81;5101131;28;20031;-72
2021/12/31 11:05:23;;;;;;;6.38;3.10;;;;;;;13.44;95.49;101691.00;5092268;28;20035;-73
2021/12/31 11:07:50;;;;;;;7.28;2.97;;;;;;;13.33;95.98;101687.19;5111855;28;20533;-71
2021/12/31 11:10:16;;;;;;;6.72;2.70;;;;;;;13.30;96.13;101692.44;5112956;28;20073;-71
2021/12/31 11:12:48;;;;;;;11.65;4.22;;;;;;;13.05;97.42;101712.19;5113181;28;20094;-72
2021/12/31 11:15:15;;;;;;;5.75;2.80;;;;;;;12.90;99.37;101695.19;5092337;28;20108;-73
2021/12/31 11:17:41;;;;;;;5.88;2.58;;;;;;;12.63;100.00;101703.41;5083695;28;20039;-72